Grenola, Kansas
Current Conditions -  °F | °C
As of 5:54 PM on Saturday 25 Oct 2014 (Local Time) from KWLD Reporting Station
Clear Clear  
Wind Chill: 81°   Ceiling: Unl
Heat Index: 82°   Visibility: 10mi
Dew Point: 64°   Wind: 7mph
Humidity: 56%   Direction: 160°SSE
Pressure: 30"   Gusts: NA
Location:  37.35°N, 96.45°W
Report Text: KWLD 252254Z AUTO 16006KT 10SM CLR 27/18 A3000 RMK AO2 SLP151 T02720178
Loading
Personal Weather Stations






























Interactive Weather Map
Tropical Storm Tracking
New forecast layout! Learn more

10-Day Weather Forecast

Advertisements
Track Severe Weather on mobile